• Join FlightAware (Why Join?)
  • Login
  • US Flag 
09:51PM EDT


 

Airport Tracker/Info


-or-


 

Live Flight TrackerFlight Track Log ✈ EGF2758 ✈ 21-Jun-2013 ✈ KORD - KSYR

Flight Track Log - Related Links

Times and Time Zones

All times are in EDT time to prevent confusion due to time zone crossing. See the EGF2758 flight status page for this flight to view local times or setup timezone preferences in your user account.

Time Position Orientation Groundspeed Altitude Reporting Facility
EDT Latitude Longitude Course Direction KTS MPH feet Rate Location/Type
12:32PM 42.0000 -87.9333 90° East 204 235 2,200  Level Chicago TRACON
12:32PM 42.0500 -87.8833 37° Northeast 274 315 3,400 1,800 Climbing Chicago TRACON
12:33PM 42.0955 -87.5394 59° Northeast  Level FlightAware Approximate
12:33PM 42.1000 -87.8000 51° Northeast 289 333 5,700  Level Chicago TRACON
12:34PM 42.1480 -87.4211 59° Northeast  Level FlightAware Approximate
12:35PM 42.1904 -87.2957 66° East  Level FlightAware Approximate
12:35PM 42.1250 -87.6742 75° East 295 339 8,400  Level Chicago Center
12:36PM 42.2323 -87.1699 66° East  Level FlightAware Approximate
12:36PM 42.1522 -87.5664 71° East 305 351 10,300  Level Chicago Center
12:37PM 42.2667 -87.0396 90° East  Level FlightAware Approximate
12:37PM 42.1825 -87.4511 70° East 325 374 11,400  Level Chicago Center
12:38PM 42.2150 -87.3231 71° East 358 412 12,400 960 Climbing Chicago Center
12:39PM 42.2483 -87.1875 72° East 381 438 13,400 900 Climbing Chicago Center
12:40PM 42.2817 -87.0481 72° East 391 450 14,300 1,020 Climbing Chicago Center
12:41PM 42.2878 -86.8664 87° East 410 472 15,500 1,020 Climbing Chicago Center
12:42PM 42.2928 -86.7144 87° East 407 468 16,500 1,500 Climbing Chicago Center
12:44PM 42.2904 -86.4882 85° East  Level FlightAware Approximate
12:44PM 42.3028 -86.4294 85° East 380 437 20,200  Level Chicago Center
12:45PM 42.3081 -86.2878 87° East 378 435 21,100 960 Climbing Chicago Center
12:46PM 42.3139 -86.1108 87° East 394 453 22,200 960 Climbing Chicago Center
12:47PM 42.3133 -85.9564 90° East 410 472 23,100 900 Climbing Chicago Center
12:48PM 42.3117 -85.8033 91° East 411 473 24,100 900 Climbing Chicago Center
12:49PM 42.3100 -85.6492 91° East 413 475 25,000 900 Climbing Chicago Center
12:50PM 42.3069 -85.4933 91° East 416 479 26,000 960 Climbing Chicago Center
12:51PM 42.3047 -85.3378 91° East 418 481 27,000 1,020 Climbing Chicago Center
12:52PM 42.3022 -85.1528 91° East 415 478 28,100 960 Climbing Chicago Center
12:53PM 42.2989 -85.0011 92° East 411 473 29,000 420 Climbing Chicago Center
12:54PM 42.2944 -84.8442 92° East 415 478 29,000  Level Chicago Center
12:55PM 42.2911 -84.6753 91° East 442 509 29,000  Level Chicago Center
12:56PM 42.2867 -84.5056 92° East 453 521 29,000  Level Chicago Center
12:58PM 42.3017 -84.2528 85° East 452 520 29,000  Level Cleveland Center
12:59PM 42.3108 -84.0875 86° East 452 520 29,000  Level Cleveland Center
01:00PM 42.3200 -83.9194 86° East 447 514 29,000  Level Cleveland Center
01:01PM 42.3311 -83.7514 85° East 447 514 29,000  Level Cleveland Center
01:02PM 42.3389 -83.6114 86° East 447 514 29,000  Level Cleveland Center
01:03PM 42.3483 -83.4039 86° East 458 527 29,000  Level Cleveland Center
01:04PM 42.3589 -83.2331 85° East 458 527 29,000  Level Cleveland Center
01:05PM 42.3644 -83.0731 87° East 463 533 29,000  Level Cleveland Center
01:06PM 42.3742 -82.9019 86° East 458 527 29,000  Level Cleveland Center
01:07PM 42.3819 -82.7250 87° East 458 527 29,000  Level Cleveland Center
01:08PM 42.3892 -82.5511 87° East 458 527 29,000  Level Cleveland Center
01:09PM 42.3961 -82.3742 87° East 458 527 29,000  Level Cleveland Center
01:10PM 42.4050 -82.1972 86° East 458 527 29,000  Level Cleveland Center
01:11PM 42.4117 -82.0231 87° East 458 527 29,000  Level Cleveland Center
01:12PM 42.4197 -81.8517 86° East 463 533 29,000  Level Cleveland Center
01:13PM 42.4258 -81.6633 87° East 458 527 29,000  Level Cleveland Center
01:14PM 42.4317 -81.4861 87° East 458 527 29,000  Level Cleveland Center
01:15PM 42.4392 -81.3147 87° East 458 527 29,000  Level Cleveland Center
01:16PM 42.4442 -81.1403 88° East 463 533 29,000  Level Cleveland Center
01:17PM 42.4511 -80.9603 87° East 463 533 29,000  Level Cleveland Center
01:18PM 42.4581 -80.7858 87° East 463 533 29,000  Level Cleveland Center
01:19PM 42.4622 -80.6086 88° East 463 533 29,000  Level Cleveland Center
01:20PM 42.4664 -80.4397 88° East 457 526 29,000  Level Cleveland Center
01:21PM 42.4703 -80.2847 88° East 462 532 29,000  Level Cleveland Center
01:22PM 42.4739 -80.1131 88° East 455 524 29,000  Level Cleveland Center
01:23PM 42.4833 -79.9186 86° East 462 532 29,000  Level Cleveland Center
01:24PM 42.4844 -79.7497 89° East 462 532 29,000  Level Cleveland Center
01:25PM 42.4872 -79.5781 89° East 462 532 29,000  Level Cleveland Center
01:26PM 42.4856 -79.4036 91° East 457 526 29,000  Level Cleveland Center
01:27PM 42.5003 -79.2314 83° East 457 526 29,000  Level Cleveland Center
01:28PM 42.5358 -79.0700 73° East 457 526 29,000  Level Cleveland Center
01:29PM 42.5708 -78.9028 74° East 451 519 29,000 -180 Level Cleveland Center
01:30PM 42.6039 -78.7356 75° East 451 519 28,700 -480 Descending Cleveland Center
01:31PM 42.6386 -78.5708 74° East 456 525 28,100 -780 Descending Cleveland Center
01:32PM 42.6711 -78.4061 75° East 456 525 27,200 -900 Descending Cleveland Center
01:33PM 42.7075 -78.2381 74° East 456 525 26,300 -960 Descending Cleveland Center
01:34PM 42.7603 -78.0833 65° Northeast 456 525 25,300 -1,380 Descending Cleveland Center
01:35PM 42.8172 -77.9253 64° Northeast 456 525 23,600 -1,620 Descending Cleveland Center
01:36PM 42.8661 -77.7844 65° Northeast 456 525 22,100 -1,800 Descending Cleveland Center
01:37PM 42.9144 -77.6319 67° East 444 511 20,100 -2,040 Descending Cleveland Center
01:38PM 42.9331 -77.4694 81° East 434 499 18,100 -1,860 Descending Cleveland Center
01:39PM 42.9517 -77.3153 81° East 423 487 16,400 -1,860 Descending Cleveland Center
01:40PM 42.9744 -77.1608 79° East 411 473 14,400 -1,620 Descending Cleveland Center
01:42PM 43.0167 -76.8139 80° East 364 419 11,000 -1,260 Descending Boston Center
01:43PM 43.0381 -76.6933 76° East 330 380 10,200 -1,320 Descending Boston Center
01:44PM 43.0592 -76.5725 77° East 266 306 8,300 -1,800 Descending Boston Center
01:45PM 43.0794 -76.4686 75° East 271 312 6,400 -1,920 Descending Boston Center